createdAt,value
2017-04-25T00:00:35.774Z,5.78
2017-04-25T00:01:34.913Z,5.23
2017-04-25T00:02:34.003Z,5.82
2017-04-25T00:03:33.407Z,4.68
2017-04-25T00:04:32.507Z,4.72
2017-04-25T00:05:33.199Z,5.58
2017-04-25T00:06:33.782Z,4.55
2017-04-25T00:07:32.898Z,4.30
2017-04-25T00:09:36.587Z,4.42
2017-04-25T00:10:35.750Z,5.17
2017-04-25T00:11:35.675Z,5.22
2017-04-25T00:12:34.791Z,4.55
2017-04-25T00:13:33.879Z,4.32
2017-04-25T00:14:32.998Z,4.03
2017-04-25T00:15:32.838Z,5.37
2017-04-25T00:16:32.034Z,4.40
2017-04-25T00:17:31.182Z,5.20
2017-04-25T00:18:30.367Z,4.88
2017-04-25T00:19:29.503Z,4.22
2017-04-25T00:20:29.423Z,4.70
2017-04-25T00:21:28.523Z,5.25
2017-04-25T00:22:27.716Z,5.02
2017-04-25T00:23:26.926Z,5.73
2017-04-25T00:24:26.854Z,7.00
2017-04-25T00:25:26.699Z,5.82
2017-04-25T00:26:25.803Z,6.72
2017-04-25T00:27:24.910Z,6.33
2017-04-25T00:28:24.803Z,6.80
2017-04-25T00:29:24.658Z,6.97
2017-04-25T00:30:23.775Z,6.12
2017-04-25T00:31:22.910Z,6.60
2017-04-25T00:32:22.014Z,6.80
2017-04-25T00:33:21.112Z,6.55
2017-04-25T00:34:21.024Z,7.05
2017-04-25T00:35:20.863Z,6.50
2017-04-25T00:36:19.978Z,7.35
2017-04-25T00:37:19.062Z,6.93
2017-04-25T00:38:18.199Z,6.97
2017-04-25T00:39:17.304Z,8.62
2017-04-25T00:40:16.459Z,10.30
2017-04-25T00:41:15.558Z,10.92
2017-04-25T00:42:14.675Z,10.45
2017-04-25T00:43:15.572Z,9.95
2017-04-25T00:44:14.670Z,10.07
2017-04-25T00:45:14.500Z,9.12
2017-04-25T00:46:13.666Z,10.20
2017-04-25T00:47:13.490Z,9.65
2017-04-25T00:48:12.571Z,6.07
2017-04-25T00:49:11.677Z,4.93
2017-04-25T00:50:10.795Z,4.20
2017-04-25T00:51:10.651Z,5.05
2017-04-25T00:52:09.830Z,5.45
2017-04-25T00:53:08.914Z,4.42
2017-04-25T00:54:08.011Z,5.22
2017-04-25T00:55:07.143Z,4.52
2017-04-25T00:56:06.231Z,4.20
2017-04-25T00:57:05.410Z,4.38
2017-04-25T00:58:04.556Z,4.25
2017-04-25T00:59:04.603Z,3.90
2017-04-25T01:00:03.769Z,3.95
2017-04-25T01:01:02.919Z,4.23
2017-04-25T01:02:04.171Z,3.62
2017-04-25T01:03:03.286Z,3.78
2017-04-25T01:04:02.430Z,3.48
2017-04-25T01:05:01.580Z,3.37
2017-04-25T01:06:01.462Z,3.02
2017-04-25T01:07:00.663Z,3.05
2017-04-25T01:08:00.574Z,2.58
2017-04-25T01:08:59.723Z,3.57
2017-04-25T01:09:59.299Z,2.47
2017-04-25T01:10:58.790Z,2.62
2017-04-25T01:11:57.927Z,2.53
2017-04-25T01:12:57.095Z,2.17
2017-04-25T01:13:57.024Z,2.70
2017-04-25T01:14:56.137Z,2.35
2017-04-25T01:15:55.502Z,2.85
2017-04-25T01:16:54.618Z,2.30
2017-04-25T01:17:53.739Z,2.43
2017-04-25T01:18:53.623Z,3.33
2017-04-25T01:19:52.726Z,2.43
2017-04-25T01:20:51.823Z,2.90
2017-04-25T01:21:50.971Z,2.63
2017-04-25T01:22:50.066Z,2.68
2017-04-25T01:23:49.180Z,3.02
2017-04-25T01:24:48.286Z,3.43
2017-04-25T01:25:48.162Z,3.22
2017-04-25T01:26:47.351Z,3.40
2017-04-25T01:27:46.605Z,2.80
2017-04-25T01:28:45.775Z,3.18
2017-04-25T01:29:44.894Z,3.88
2017-04-25T01:30:43.984Z,2.70
2017-04-25T01:31:43.842Z,2.97
2017-04-25T01:32:42.978Z,3.22
2017-04-25T01:33:42.959Z,3.35
2017-04-25T01:34:42.099Z,3.00
2017-04-25T01:35:41.208Z,3.68
2017-04-25T01:36:40.295Z,3.73
2017-04-25T01:37:39.375Z,3.42
2017-04-25T01:38:38.502Z,3.37
2017-04-25T01:39:37.635Z,3.77
2017-04-25T01:40:36.750Z,3.30
2017-04-25T01:41:35.879Z,3.40
2017-04-25T01:42:35.007Z,4.02
2017-04-25T01:43:34.123Z,4.07
2017-04-25T01:44:33.251Z,4.57
2017-04-25T01:45:33.159Z,3.77
2017-04-25T01:46:32.263Z,3.90
2017-04-25T01:47:31.376Z,3.20
2017-04-25T01:48:30.515Z,4.10
2017-04-25T01:49:29.662Z,3.48
2017-04-25T01:50:29.540Z,3.90
2017-04-25T01:51:28.734Z,4.12
2017-04-25T01:52:27.847Z,3.53
2017-04-25T01:53:26.995Z,4.03
2017-04-25T01:54:26.119Z,3.57
2017-04-25T01:55:25.242Z,3.80
2017-04-25T01:56:24.658Z,3.47
2017-04-25T01:57:24.546Z,3.88
2017-04-25T01:58:24.398Z,4.37
2017-04-25T01:59:24.082Z,4.38
2017-04-25T02:00:23.174Z,3.70
2017-04-25T02:01:22.384Z,4.32
2017-04-25T02:02:21.506Z,4.38
2017-04-25T02:03:20.967Z,4.75
2017-04-25T02:04:20.091Z,3.27
2017-04-25T02:05:19.214Z,4.15
2017-04-25T02:06:18.334Z,4.72
2017-04-25T02:07:17.515Z,4.82
2017-04-25T02:08:16.646Z,3.82
2017-04-25T02:09:15.844Z,4.75
2017-04-25T02:10:14.986Z,3.98
2017-04-25T02:11:14.223Z,4.67
2017-04-25T02:12:14.085Z,4.37
2017-04-25T02:13:13.227Z,4.72
2017-04-25T02:14:12.318Z,3.55
2017-04-25T02:15:11.471Z,4.63
2017-04-25T02:16:11.335Z,3.92
2017-04-25T02:17:10.431Z,4.25
2017-04-25T02:18:10.283Z,4.17
2017-04-25T02:19:09.414Z,4.28
2017-04-25T02:20:09.238Z,4.83
2017-04-25T02:21:08.383Z,3.60
2017-04-25T02:22:07.580Z,3.85
2017-04-25T02:23:07.407Z,4.55
2017-04-25T02:24:06.582Z,4.40
2017-04-25T02:25:05.706Z,3.42
2017-04-25T02:26:04.871Z,4.08
2017-04-25T02:27:04.058Z,4.75
2017-04-25T02:28:03.910Z,3.58
2017-04-25T02:29:03.095Z,3.35
2017-04-25T02:30:02.256Z,3.70
2017-04-25T02:31:02.119Z,3.93
2017-04-25T02:32:01.231Z,4.58
2017-04-25T02:33:01.115Z,4.65
2017-04-25T02:34:00.244Z,4.37
2017-04-25T02:34:59.395Z,4.70
2017-04-25T02:35:59.275Z,4.02
2017-04-25T02:36:58.386Z,4.55
2017-04-25T02:37:57.682Z,4.95
2017-04-25T02:38:56.835Z,4.60
2017-04-25T02:39:55.939Z,5.25
2017-04-25T02:40:55.063Z,4.50
2017-04-25T02:41:54.677Z,6.05
2017-04-25T02:42:54.527Z,4.50
2017-04-25T02:43:53.623Z,4.80
2017-04-25T02:44:52.755Z,5.25
2017-04-25T02:45:51.882Z,5.75
2017-04-25T02:46:51.719Z,4.67
2017-04-25T02:47:51.566Z,5.83
2017-04-25T02:48:50.675Z,7.35
2017-04-25T02:49:49.814Z,7.38
2017-04-25T02:50:49.015Z,8.28
2017-04-25T02:51:48.155Z,7.60
2017-04-25T02:52:47.275Z,7.07
2017-04-25T02:53:46.567Z,7.60
2017-04-25T02:54:46.144Z,7.82
2017-04-25T02:55:45.283Z,8.40
2017-04-25T02:56:44.439Z,5.87
2017-04-25T02:57:43.523Z,5.12
2017-04-25T02:58:42.631Z,4.87
2017-04-25T02:59:41.742Z,5.10
2017-04-25T03:00:40.851Z,4.33
2017-04-25T03:01:40.644Z,5.08
2017-04-25T03:02:39.879Z,4.73
2017-04-25T03:03:39.011Z,5.10
2017-04-25T03:04:38.114Z,5.57
2017-04-25T03:05:37.255Z,5.48
2017-04-25T03:06:36.355Z,4.42
2017-04-25T03:07:35.439Z,4.90
2017-04-25T03:08:34.567Z,5.20
2017-04-25T03:09:33.810Z,5.43
2017-04-25T03:10:33.685Z,4.80
2017-04-25T03:11:32.790Z,5.68
2017-04-25T03:12:32.630Z,4.55
2017-04-25T03:13:31.890Z,4.55
2017-04-25T03:14:31.939Z,4.68
2017-04-25T03:15:31.062Z,5.27
2017-04-25T03:16:30.203Z,4.78
2017-04-25T03:17:29.343Z,4.50
2017-04-25T03:18:28.446Z,4.82
2017-04-25T03:19:27.760Z,4.78
2017-04-25T03:20:27.348Z,4.53
2017-04-25T03:21:26.510Z,5.53
2017-04-25T03:22:26.366Z,4.88
2017-04-25T03:23:25.479Z,4.70
2017-04-25T03:24:24.594Z,4.55
2017-04-25T03:25:23.687Z,4.53
2017-04-25T03:26:23.583Z,5.45
2017-04-25T03:27:23.442Z,4.60
2017-04-25T03:28:22.515Z,6.22
2017-04-25T03:29:21.663Z,4.98
2017-04-25T03:30:20.799Z,5.98
2017-04-25T03:31:19.908Z,4.98
2017-04-25T03:32:19.818Z,4.60
2017-04-25T03:33:19.178Z,5.43
2017-04-25T03:34:18.323Z,5.27
2017-04-25T03:35:18.697Z,5.12
2017-04-25T03:36:18.791Z,5.90
2017-04-25T03:37:17.911Z,5.65
2017-04-25T03:38:17.098Z,6.10
2017-04-25T03:39:16.230Z,5.95
2017-04-25T03:40:15.423Z,6.00
2017-04-25T03:41:14.562Z,6.70
2017-04-25T03:42:13.707Z,6.78
2017-04-25T03:43:12.838Z,5.97
2017-04-25T03:44:11.970Z,6.03
2017-04-25T03:45:11.111Z,6.35
2017-04-25T03:46:10.323Z,6.25
2017-04-25T03:47:11.198Z,6.57
2017-04-25T03:48:11.054Z,8.03
2017-04-25T03:49:10.182Z,7.30
2017-04-25T03:50:12.298Z,6.95
2017-04-25T03:51:11.407Z,8.52
2017-04-25T03:52:10.513Z,6.62
2017-04-25T03:53:09.615Z,7.37
2017-04-25T03:54:08.722Z,7.82
2017-04-25T03:55:09.579Z,6.95
2017-04-25T03:56:09.474Z,6.57
2017-04-25T03:57:09.403Z,7.18
2017-04-25T03:58:08.527Z,7.18
2017-04-25T03:59:07.607Z,7.55
2017-04-25T04:00:08.810Z,7.33
2017-04-25T04:01:07.922Z,7.62
2017-04-25T04:02:07.067Z,8.10
2017-04-25T04:03:06.194Z,8.07
2017-04-25T04:04:05.295Z,8.45
2017-04-25T04:05:04.430Z,7.93
2017-04-25T04:06:05.243Z,7.92
2017-04-25T04:07:04.370Z,8.20
2017-04-25T04:08:03.503Z,8.93
2017-04-25T04:10:11.478Z,9.28
2017-04-25T04:11:10.578Z,9.37
2017-04-25T04:12:09.679Z,9.87
2017-04-25T04:13:09.562Z,8.38
2017-04-25T04:14:11.083Z,9.43
2017-04-25T04:15:14.057Z,9.07
2017-04-25T04:16:13.166Z,10.17
2017-04-25T04:17:12.254Z,10.67
2017-04-25T04:18:12.134Z,8.37
2017-04-25T04:19:11.246Z,8.57
2017-04-25T04:20:11.223Z,10.17
2017-04-25T04:21:11.179Z,9.65
2017-04-25T04:22:10.319Z,9.37
2017-04-25T04:23:09.443Z,11.98
2017-04-25T04:24:09.351Z,10.40
2017-04-25T04:25:08.445Z,10.52
2017-04-25T04:26:08.370Z,10.40
2017-04-25T04:27:08.222Z,10.90
2017-04-25T04:28:07.332Z,10.27
2017-04-25T04:29:07.262Z,12.10
2017-04-25T04:30:06.916Z,11.93
2017-04-25T04:31:06.085Z,9.03
2017-04-25T04:32:05.151Z,9.78
2017-04-25T04:33:05.035Z,10.92
2017-04-25T04:34:04.168Z,10.12
2017-04-25T04:35:04.018Z,10.40
2017-04-25T04:36:03.245Z,11.60
2017-04-25T04:37:04.404Z,10.93
2017-04-25T04:38:03.687Z,12.87
2017-04-25T04:39:03.023Z,11.33
2017-04-25T04:40:02.470Z,11.53
2017-04-25T04:41:01.563Z,13.48
2017-04-25T04:42:00.818Z,11.95
2017-04-25T04:42:59.963Z,10.63
2017-04-25T04:43:59.799Z,12.83
2017-04-25T04:44:58.915Z,13.67
2017-04-25T04:45:58.083Z,13.72
2017-04-25T04:46:57.195Z,12.10
2017-04-25T04:47:56.355Z,12.62
2017-04-25T04:48:55.459Z,12.13
2017-04-25T04:49:55.346Z,13.68
2017-04-25T04:50:54.486Z,14.53
2017-04-25T04:51:53.578Z,14.52
2017-04-25T04:52:52.828Z,12.38
2017-04-25T04:53:52.077Z,14.00
2017-04-25T04:54:52.080Z,13.85
2017-04-25T04:55:51.867Z,14.62
2017-04-25T04:56:51.947Z,15.98
2017-04-25T04:57:51.047Z,12.70
2017-04-25T04:58:50.386Z,12.35
2017-04-25T04:59:49.566Z,11.95
2017-04-25T05:00:48.990Z,12.33
2017-04-25T05:01:48.098Z,11.33
2017-04-25T05:02:47.263Z,12.03
2017-04-25T05:03:46.463Z,12.17
2017-04-25T05:04:45.579Z,11.12
2017-04-25T05:05:44.759Z,12.47
2017-04-25T05:06:44.418Z,10.40
2017-04-25T05:07:43.522Z,10.48
2017-04-25T05:08:42.603Z,10.77
2017-04-25T05:09:41.759Z,10.02
2017-04-25T05:10:40.858Z,8.55
2017-04-25T05:11:41.424Z,8.90
2017-04-25T05:12:40.736Z,9.03
2017-04-25T05:13:40.587Z,8.77
2017-04-25T05:14:39.671Z,9.10
2017-04-25T05:15:38.810Z,8.82
2017-04-25T05:16:38.719Z,7.73
2017-04-25T05:17:38.634Z,7.87
2017-04-25T05:18:37.727Z,8.17
2017-04-25T05:19:38.510Z,8.37
2017-04-25T05:20:39.432Z,7.40
2017-04-25T05:21:39.294Z,8.33
2017-04-25T05:22:38.430Z,7.48
2017-04-25T05:23:37.800Z,6.88
2017-04-25T05:24:36.914Z,7.22
2017-04-25T05:25:36.007Z,7.77
2017-04-25T05:26:35.147Z,8.35
2017-04-25T05:27:34.259Z,7.07
2017-04-25T05:28:33.411Z,6.53
2017-04-25T05:29:32.542Z,6.00
2017-04-25T05:30:31.962Z,6.87
2017-04-25T05:31:31.083Z,6.03
2017-04-25T05:32:30.191Z,6.45
2017-04-25T05:33:29.283Z,6.32
2017-04-25T05:34:28.444Z,5.55
2017-04-25T05:35:27.599Z,5.68
2017-04-25T05:36:26.726Z,6.30
2017-04-25T05:37:26.560Z,5.82
2017-04-25T05:38:25.669Z,5.55
2017-04-25T05:39:25.532Z,5.88
2017-04-25T05:40:24.619Z,5.70
2017-04-25T05:41:23.743Z,5.65
2017-04-25T05:42:22.819Z,5.12
2017-04-25T05:43:21.900Z,5.55
2017-04-25T05:44:21.022Z,5.67
2017-04-25T05:45:20.135Z,6.07
2017-04-25T05:46:19.222Z,5.65
2017-04-25T05:47:18.374Z,5.92
2017-04-25T05:48:17.487Z,5.42
2017-04-25T05:49:16.650Z,5.15
2017-04-25T05:50:15.755Z,5.62
2017-04-25T05:51:15.609Z,6.22
2017-04-25T05:52:14.754Z,5.97
2017-04-25T05:53:13.962Z,7.37
2017-04-25T05:54:13.046Z,5.92
2017-04-25T05:55:12.147Z,5.58
2017-04-25T05:56:11.251Z,6.93
2017-04-25T05:57:10.350Z,6.18
2017-04-25T05:58:09.470Z,6.38
2017-04-25T05:59:08.626Z,5.82
2017-04-25T06:00:08.510Z,6.40
2017-04-25T06:01:07.618Z,5.55
2017-04-25T06:02:06.834Z,5.77
2017-04-25T06:03:05.931Z,6.10
2017-04-25T06:04:05.182Z,6.55
2017-04-25T06:05:04.366Z,6.55
2017-04-25T06:06:03.483Z,5.85
2017-04-25T06:07:02.618Z,5.52
2017-04-25T06:08:01.710Z,5.55
2017-04-25T06:09:00.856Z,5.75
2017-04-25T06:10:00.727Z,6.35
2017-04-25T06:10:59.903Z,5.10
2017-04-25T06:11:59.031Z,5.85
2017-04-25T06:12:58.167Z,5.42
2017-04-25T06:13:57.299Z,4.92
2017-04-25T06:14:56.407Z,5.00
2017-04-25T06:15:55.527Z,5.00
2017-04-25T06:16:55.416Z,5.53
2017-04-25T06:17:55.272Z,4.77
2017-04-25T06:18:54.352Z,5.43
2017-04-25T06:19:53.465Z,5.10
2017-04-25T06:20:52.633Z,4.83
2017-04-25T06:21:51.758Z,4.85
2017-04-25T06:22:51.820Z,5.50
2017-04-25T06:23:50.958Z,4.67
2017-04-25T06:24:50.114Z,4.27
2017-04-25T06:25:49.920Z,5.92
2017-04-25T06:26:49.758Z,5.53
2017-04-25T06:27:48.856Z,4.82
2017-04-25T06:28:48.039Z,4.52
2017-04-25T06:29:47.143Z,5.17
2017-04-25T06:30:46.259Z,3.98
2017-04-25T06:31:45.366Z,4.57
2017-04-25T06:32:44.463Z,3.68
2017-04-25T06:33:43.539Z,3.22
2017-04-25T06:34:43.004Z,3.62
2017-04-25T06:35:42.084Z,2.78
2017-04-25T06:36:41.161Z,3.65
2017-04-25T06:37:40.279Z,3.10
2017-04-25T06:38:40.129Z,3.77
2017-04-25T06:39:39.242Z,3.82
2017-04-25T06:40:38.926Z,3.77
2017-04-25T06:41:38.001Z,3.57
2017-04-25T06:42:37.131Z,3.45
2017-04-25T06:43:36.272Z,4.45
2017-04-25T06:44:35.389Z,3.42
2017-04-25T06:45:34.492Z,2.65
2017-04-25T06:46:33.807Z,3.18
2017-04-25T06:47:32.909Z,3.15
2017-04-25T06:48:32.037Z,2.92
2017-04-25T06:49:31.120Z,2.85
2017-04-25T06:50:30.850Z,2.75
2017-04-25T06:51:29.958Z,3.60
2017-04-25T06:52:29.899Z,3.22
2017-04-25T06:53:29.003Z,3.97
2017-04-25T06:54:28.120Z,3.27
2017-04-25T06:55:27.283Z,2.67
2017-04-25T06:56:26.361Z,3.90
2017-04-25T06:57:25.438Z,2.80
2017-04-25T06:58:24.578Z,2.88
2017-04-25T06:59:23.680Z,3.03
2017-04-25T07:00:22.765Z,2.65
2017-04-25T07:01:21.859Z,4.17
2017-04-25T07:02:21.009Z,3.52
2017-04-25T07:03:20.836Z,5.02
2017-04-25T07:04:19.997Z,3.93
2017-04-25T07:05:19.072Z,3.33
2017-04-25T07:06:18.170Z,3.28
2017-04-25T07:07:17.286Z,3.58
2017-04-25T07:08:16.379Z,3.27
2017-04-25T07:09:15.476Z,4.53
2017-04-25T07:10:14.613Z,4.23
2017-04-25T07:11:14.451Z,3.25
2017-04-25T07:12:13.554Z,3.85
2017-04-25T07:13:12.654Z,3.87
2017-04-25T07:14:11.755Z,3.80
2017-04-25T07:15:10.816Z,4.30
2017-04-25T07:16:10.712Z,4.62
2017-04-25T07:17:09.811Z,3.83
2017-04-25T07:18:09.627Z,3.73
2017-04-25T07:19:08.715Z,3.53
2017-04-25T07:20:07.834Z,3.70
2017-04-25T07:21:07.000Z,4.00
2017-04-25T07:22:06.121Z,4.43
2017-04-25T07:23:05.949Z,4.13
2017-04-25T07:24:05.071Z,4.10
2017-04-25T07:25:04.148Z,4.20
2017-04-25T07:26:03.262Z,3.80
2017-04-25T07:27:03.111Z,4.02
2017-04-25T07:28:02.353Z,3.90
2017-04-25T07:29:01.472Z,4.92
2017-04-25T07:30:00.641Z,3.23
2017-04-25T07:30:59.789Z,3.97
2017-04-25T07:31:59.073Z,3.52
2017-04-25T07:32:58.210Z,3.60
2017-04-25T07:33:57.690Z,4.27
2017-04-25T07:34:56.807Z,4.65
2017-04-25T07:35:56.661Z,2.92
2017-04-25T07:36:55.781Z,4.40
2017-04-25T07:37:55.633Z,4.52
2017-04-25T07:38:54.718Z,3.70
2017-04-25T07:39:53.880Z,3.60
2017-04-25T07:40:53.036Z,3.47
2017-04-25T07:41:52.114Z,4.07
2017-04-25T07:42:51.224Z,3.88
2017-04-25T07:43:50.339Z,3.18
2017-04-25T07:44:49.424Z,3.42
2017-04-25T07:45:48.917Z,3.70
2017-04-25T07:46:48.009Z,3.45
2017-04-25T07:47:47.878Z,3.13
2017-04-25T07:48:46.960Z,4.00
2017-04-25T07:49:46.111Z,3.12
2017-04-25T07:50:45.189Z,2.82
2017-04-25T07:51:44.328Z,3.07
2017-04-25T07:52:44.137Z,2.80
2017-04-25T07:53:43.256Z,3.20
2017-04-25T07:54:42.356Z,3.80
2017-04-25T07:55:41.792Z,2.27
2017-04-25T07:56:40.889Z,2.88
2017-04-25T07:57:40.033Z,3.03
2017-04-25T07:58:39.139Z,3.52
2017-04-25T07:59:38.250Z,3.12
2017-04-25T08:00:37.318Z,4.00
2017-04-25T08:01:36.401Z,3.18
2017-04-25T08:02:35.515Z,2.98
2017-04-25T08:03:34.654Z,2.82
2017-04-25T08:04:33.725Z,2.35
2017-04-25T08:05:33.249Z,3.17
2017-04-25T08:06:32.360Z,2.75
2017-04-25T08:07:32.603Z,2.50
2017-04-25T08:08:31.709Z,2.27
2017-04-25T08:09:31.148Z,2.43
2017-04-25T08:10:30.241Z,2.68
2017-04-25T08:11:29.369Z,2.17
2017-04-25T08:12:28.486Z,3.13
2017-04-25T08:13:27.589Z,2.88
2017-04-25T08:14:26.685Z,2.20
2017-04-25T08:15:25.822Z,2.78
2017-04-25T08:16:24.901Z,2.10
2017-04-25T08:17:24.009Z,2.97
2017-04-25T08:18:23.102Z,2.35
2017-04-25T08:19:22.201Z,2.00
2017-04-25T08:20:21.277Z,2.10
2017-04-25T08:21:20.944Z,2.48
2017-04-25T08:22:20.047Z,2.15
2017-04-25T08:23:19.143Z,2.73
2017-04-25T08:24:18.217Z,2.57
2017-04-25T08:25:17.304Z,2.12
2017-04-25T08:26:16.426Z,2.12
2017-04-25T08:27:15.586Z,1.97
2017-04-25T08:28:15.433Z,2.07
2017-04-25T08:29:14.521Z,2.55
2017-04-25T08:30:13.618Z,2.30
2017-04-25T08:31:13.436Z,1.98
2017-04-25T08:32:13.282Z,2.95
2017-04-25T08:33:12.412Z,2.62
2017-04-25T08:34:12.265Z,3.08
2017-04-25T08:35:11.378Z,2.73
2017-04-25T08:36:11.180Z,2.43
2017-04-25T08:37:10.372Z,2.87
2017-04-25T08:38:09.491Z,2.07
2017-04-25T08:39:08.636Z,2.40
2017-04-25T08:40:07.731Z,3.40
2017-04-25T08:41:06.851Z,2.27
2017-04-25T08:42:05.955Z,2.18
2017-04-25T08:43:05.810Z,2.02
2017-04-25T08:44:04.901Z,2.87
2017-04-25T08:45:04.090Z,2.10
2017-04-25T08:46:03.206Z,2.27
2017-04-25T08:47:03.070Z,1.88
2017-04-25T08:48:02.164Z,2.37
2017-04-25T08:49:01.265Z,2.62
2017-04-25T08:50:00.392Z,2.13
2017-04-25T08:50:59.554Z,2.20
2017-04-25T08:51:58.670Z,2.30
2017-04-25T08:52:57.797Z,2.58
2017-04-25T08:53:56.900Z,2.55
2017-04-25T08:54:56.037Z,1.75
2017-04-25T08:55:55.913Z,1.83
2017-04-25T08:56:55.063Z,2.73
2017-04-25T08:57:54.149Z,2.48
2017-04-25T08:58:53.986Z,2.07
2017-04-25T08:59:53.061Z,2.62
2017-04-25T09:00:52.124Z,1.93
2017-04-25T09:01:51.228Z,2.12
2017-04-25T09:02:50.377Z,2.18
2017-04-25T09:03:49.483Z,2.02
2017-04-25T09:04:49.322Z,2.57
2017-04-25T09:05:48.407Z,3.25
2017-04-25T09:06:47.562Z,2.57
2017-04-25T09:07:46.695Z,2.35
2017-04-25T09:08:45.856Z,1.85
2017-04-25T09:09:44.934Z,3.15
2017-04-25T09:10:44.000Z,2.58
2017-04-25T09:11:43.102Z,1.93
2017-04-25T09:12:42.193Z,1.78
2017-04-25T09:13:41.334Z,2.22
2017-04-25T09:14:40.488Z,2.38
2017-04-25T09:15:40.321Z,2.97
2017-04-25T09:16:39.424Z,2.57
2017-04-25T09:17:38.498Z,2.27
2017-04-25T09:18:37.581Z,2.40
2017-04-25T09:19:37.571Z,3.03
2017-04-25T09:20:37.008Z,2.75
2017-04-25T09:21:36.147Z,2.80
2017-04-25T09:22:35.216Z,3.08
2017-04-25T09:23:34.289Z,2.72
2017-04-25T09:24:33.408Z,3.25
2017-04-25T09:25:32.640Z,1.97
2017-04-25T09:26:32.188Z,2.83
2017-04-25T09:27:31.548Z,2.68
2017-04-25T09:28:31.000Z,2.85
2017-04-25T09:29:30.108Z,2.72
2017-04-25T09:30:29.749Z,3.02
2017-04-25T09:31:28.875Z,3.37
2017-04-25T09:32:28.049Z,4.00
2017-04-25T09:33:27.149Z,2.73
2017-04-25T09:34:26.265Z,3.45
2017-04-25T09:35:26.138Z,3.00
2017-04-25T09:36:25.245Z,4.37
2017-04-25T09:37:25.096Z,3.12
2017-04-25T09:38:24.197Z,3.30
2017-04-25T09:39:23.281Z,3.87
2017-04-25T09:40:22.362Z,3.38
2017-04-25T09:41:21.470Z,2.63
2017-04-25T09:42:20.556Z,2.62
2017-04-25T09:43:19.652Z,3.43
2017-04-25T09:44:18.807Z,3.08
2017-04-25T09:45:18.656Z,3.35
2017-04-25T09:46:17.791Z,3.52
2017-04-25T09:47:16.901Z,3.32
2017-04-25T09:48:15.990Z,2.98
2017-04-25T09:49:15.080Z,3.27
2017-04-25T09:50:14.535Z,3.28
2017-04-25T09:51:13.632Z,2.85
2017-04-25T09:52:12.716Z,2.63
2017-04-25T09:53:11.829Z,2.43
2017-04-25T09:54:11.641Z,3.15
2017-04-25T09:55:11.482Z,2.57
2017-04-25T09:56:10.968Z,2.97
2017-04-25T09:57:10.058Z,2.97
2017-04-25T09:58:09.155Z,2.87
2017-04-25T09:59:08.666Z,3.33
2017-04-25T10:00:07.771Z,2.90
2017-04-25T10:01:06.889Z,2.68
2017-04-25T10:02:06.005Z,2.62
2017-04-25T10:03:05.096Z,2.97
2017-04-25T10:04:04.177Z,2.65
2017-04-25T10:05:03.322Z,2.90
2017-04-25T10:06:02.507Z,2.65
2017-04-25T10:07:01.627Z,2.83
2017-04-25T10:08:00.820Z,2.78
2017-04-25T10:08:59.921Z,2.73
2017-04-25T10:09:59.057Z,2.15
2017-04-25T10:10:58.938Z,1.95
2017-04-25T10:11:58.076Z,2.30
2017-04-25T10:12:57.205Z,2.07
2017-04-25T10:13:57.113Z,2.60
2017-04-25T10:14:56.955Z,2.03
2017-04-25T10:15:56.086Z,2.77
2017-04-25T10:16:55.919Z,2.33
2017-04-25T10:17:54.996Z,2.23
2017-04-25T10:18:54.088Z,2.78
2017-04-25T10:19:53.233Z,2.82
2017-04-25T10:20:54.229Z,2.90
2017-04-25T10:21:53.399Z,2.60
2017-04-25T10:22:52.498Z,2.45
2017-04-25T10:23:52.355Z,2.48
2017-04-25T10:24:51.458Z,2.35
2017-04-25T10:25:50.585Z,2.03
2017-04-25T10:26:49.688Z,1.97
2017-04-25T10:27:48.760Z,1.93
2017-04-25T10:28:47.869Z,1.85
2017-04-25T10:29:46.970Z,2.15
2017-04-25T10:30:46.833Z,1.98
2017-04-25T10:31:45.971Z,2.05
2017-04-25T10:32:45.030Z,1.70
2017-04-25T10:33:44.860Z,2.13
2017-04-25T10:34:43.969Z,2.48
2017-04-25T10:35:43.072Z,2.07
2017-04-25T10:36:42.188Z,2.15
2017-04-25T10:37:41.297Z,1.58
2017-04-25T10:38:40.391Z,1.48
2017-04-25T10:39:39.490Z,1.50
2017-04-25T10:40:38.591Z,1.78
2017-04-25T10:41:38.442Z,1.78
2017-04-25T10:42:37.504Z,1.40
2017-04-25T10:43:36.613Z,1.45
2017-04-25T10:44:35.694Z,1.50
2017-04-25T10:45:34.777Z,1.48
2017-04-25T10:46:33.922Z,1.33
2017-04-25T10:47:33.024Z,2.10
2017-04-25T10:48:32.222Z,1.42
2017-04-25T10:49:31.404Z,1.78
2017-04-25T10:50:30.516Z,1.85
2017-04-25T10:51:30.378Z,1.80
2017-04-25T10:52:29.488Z,1.28
2017-04-25T10:53:29.362Z,1.47
2017-04-25T10:54:28.520Z,1.33
2017-04-25T10:55:27.672Z,1.73
2017-04-25T10:56:26.787Z,2.87
2017-04-25T10:57:25.899Z,1.72
2017-04-25T10:58:25.724Z,1.33
2017-04-25T10:59:24.790Z,1.30
2017-04-25T11:00:24.698Z,1.08
2017-04-25T11:01:23.863Z,1.40
2017-04-25T11:02:23.706Z,0.68
2017-04-25T11:03:22.781Z,1.03
2017-04-25T11:04:21.845Z,0.98
2017-04-25T11:05:20.972Z,1.03
2017-04-25T11:06:20.025Z,0.80
2017-04-25T11:07:19.168Z,0.97
2017-04-25T11:08:18.287Z,0.75
2017-04-25T11:09:17.396Z,0.63
2017-04-25T11:10:16.496Z,0.73
2017-04-25T11:11:16.354Z,1.03
2017-04-25T11:12:15.432Z,0.85
2017-04-25T11:13:16.766Z,0.73
2017-04-25T11:14:15.874Z,0.73
2017-04-25T11:15:15.707Z,0.90
2017-04-25T11:16:14.792Z,0.97
2017-04-25T11:17:13.879Z,0.83
2017-04-25T11:18:12.979Z,0.88
2017-04-25T11:19:12.452Z,0.90
2017-04-25T11:20:11.546Z,0.97
2017-04-25T11:21:10.632Z,0.90
2017-04-25T11:22:09.795Z,1.00
2017-04-25T11:23:08.888Z,1.02
2017-04-25T11:24:07.973Z,1.08
2017-04-25T11:25:07.166Z,1.33
2017-04-25T11:26:06.540Z,1.23
2017-04-25T11:27:05.613Z,1.23
2017-04-25T11:28:04.737Z,1.05
2017-04-25T11:29:04.572Z,1.00
2017-04-25T11:30:03.678Z,0.92
2017-04-25T11:31:02.826Z,1.00
2017-04-25T11:32:01.912Z,1.15
2017-04-25T11:33:01.033Z,1.30
2017-04-25T11:34:00.911Z,1.48
2017-04-25T11:35:00.073Z,1.27
2017-04-25T11:35:59.217Z,1.77
2017-04-25T11:36:59.162Z,1.62
2017-04-25T11:37:58.302Z,1.23
2017-04-25T11:38:57.647Z,1.27
2017-04-25T11:39:56.747Z,1.58
2017-04-25T11:40:56.580Z,1.40
2017-04-25T11:41:55.809Z,1.33
2017-04-25T11:42:54.947Z,1.57
2017-04-25T11:43:54.044Z,1.27
2017-04-25T11:44:53.135Z,1.28
2017-04-25T11:45:52.251Z,1.25
2017-04-25T11:46:52.065Z,1.55
2017-04-25T11:47:51.139Z,1.37
2017-04-25T11:48:50.459Z,1.77
2017-04-25T11:49:49.540Z,1.55
2017-04-25T11:50:48.650Z,1.33
2017-04-25T11:51:47.754Z,1.37
2017-04-25T11:52:47.010Z,1.45
2017-04-25T11:53:46.128Z,1.37
2017-04-25T11:54:45.377Z,1.72
2017-04-25T11:55:44.457Z,1.05
2017-04-25T11:56:43.537Z,1.22
2017-04-25T11:57:42.593Z,1.27
2017-04-25T11:58:41.789Z,1.10
2017-04-25T11:59:40.880Z,1.43
2017-04-25T12:00:40.069Z,1.28
2017-04-25T12:01:39.171Z,1.78
2017-04-25T12:02:38.264Z,1.57
2017-04-25T12:03:37.350Z,1.85
2017-04-25T12:04:36.434Z,1.45
2017-04-25T12:05:35.516Z,1.28
2017-04-25T12:06:34.650Z,1.52
2017-04-25T12:07:33.810Z,1.08
2017-04-25T12:08:32.906Z,1.68
2017-04-25T12:09:32.763Z,1.02
2017-04-25T12:10:32.597Z,1.48
2017-04-25T12:11:31.700Z,1.50
2017-04-25T12:12:30.865Z,1.30
2017-04-25T12:13:29.972Z,1.08
2017-04-25T12:14:29.189Z,1.40
2017-04-25T12:15:28.302Z,1.57
2017-04-25T12:16:28.282Z,1.22
2017-04-25T12:17:27.383Z,1.22
2017-04-25T12:18:27.430Z,1.13
2017-04-25T12:19:26.504Z,1.17
2017-04-25T12:20:25.617Z,1.05
2017-04-25T12:21:24.718Z,0.88
2017-04-25T12:22:23.916Z,0.78
2017-04-25T12:23:23.758Z,0.78
2017-04-25T12:24:22.884Z,0.73
2017-04-25T12:25:22.814Z,0.75
2017-04-25T12:26:21.905Z,0.68
2017-04-25T12:27:21.020Z,0.72
2017-04-25T12:28:20.068Z,0.90
2017-04-25T12:29:19.262Z,0.80
2017-04-25T12:30:18.421Z,0.83
2017-04-25T12:31:17.554Z,0.90
2017-04-25T12:32:16.666Z,0.90
2017-04-25T12:33:15.769Z,0.72
2017-04-25T12:34:14.843Z,0.90
2017-04-25T12:35:13.946Z,0.72
2017-04-25T12:36:13.113Z,0.68
2017-04-25T12:37:12.209Z,0.65
2017-04-25T12:38:11.297Z,0.85
2017-04-25T12:39:10.387Z,0.75
2017-04-25T12:40:09.440Z,0.93
2017-04-25T12:41:08.593Z,0.73
2017-04-25T12:42:07.736Z,1.02
2017-04-25T12:43:06.794Z,1.52
2017-04-25T12:44:05.877Z,1.13
2017-04-25T12:45:04.962Z,1.38
2017-04-25T12:46:04.061Z,1.08
2017-04-25T12:47:03.161Z,1.00
2017-04-25T12:48:02.678Z,1.23
2017-04-25T12:49:01.809Z,1.67
2017-04-25T12:50:01.669Z,1.27
2017-04-25T12:51:00.800Z,1.15
2017-04-25T12:51:59.986Z,1.03
2017-04-25T12:52:59.124Z,1.03
2017-04-25T12:53:58.261Z,1.30
2017-04-25T12:54:57.533Z,1.08
2017-04-25T12:55:56.643Z,1.17
2017-04-25T12:56:55.728Z,1.20
2017-04-25T12:57:54.805Z,1.37
2017-04-25T12:58:55.145Z,0.95
2017-04-25T12:59:54.288Z,1.62
2017-04-25T13:00:53.376Z,1.42
2017-04-25T13:01:52.485Z,1.60
2017-04-25T13:02:52.633Z,1.40
2017-04-25T13:03:51.768Z,1.18
2017-04-25T13:04:50.846Z,1.20
2017-04-25T13:05:50.122Z,1.20
2017-04-25T13:06:49.236Z,1.13
2017-04-25T13:07:49.074Z,1.18
2017-04-25T13:08:48.231Z,1.32
2017-04-25T13:09:47.316Z,0.90